Bracht, Kentucky
Current Conditions -  °F | °C
As of 12:52 PM on Wednesday 28 Jan 2015 (Local Time) from KCVG Reporting Station
Scattered Clouds Scattered Clouds  
Wind Chill: 23°   Ceiling: Unl
Heat Index: 31°   Visibility: 10mi
Dew Point: 17°   Wind: 8mph
Humidity: 57%   Direction: 140°SE
Pressure: 30.33"   Gusts: NA
Location:  38.7783°N, 84.6037°W
Report Text: KCVG 281752Z 14007KT 10SM SCT300 M01/M08 A3033 RMK AO2 SLP279 T10061083 11006 21100 58015
Loading
Personal Weather Stations






























Interactive Weather Map New forecast layout! Learn more

10-Day Weather Forecast

Advertisements
Track Severe Weather on mobile